sensor_id;sensor_type;location;lat;lon;timestamp;temperature;humidity
4079;DHT22;2054;47.858;11.156;2024-03-02T03:45:27;5.90;99.90
4079;DHT22;2054;47.858;11.156;2024-03-02T03:47:56;5.90;99.90
4079;DHT22;2054;47.858;11.156;2024-03-02T03:50:23;6.00;99.90
4079;DHT22;2054;47.858;11.156;2024-03-02T03:52:49;6.10;99.90
4079;DHT22;2054;47.858;11.156;2024-03-02T03:55:16;6.10;99.90
4079;DHT22;2054;47.858;11.156;2024-03-02T03:57:43;6.20;99.90
4079;DHT22;2054;47.858;11.156;2024-03-02T04:00:11;6.30;99.90
4079;DHT22;2054;47.858;11.156;2024-03-02T04:02:39;6.20;99.90
4079;DHT22;2054;47.858;11.156;2024-03-02T04:05:07;6.30;99.90
4079;DHT22;2054;47.858;11.156;2024-03-02T04:07:38;6.30;99.90
4079;DHT22;2054;47.858;11.156;2024-03-02T04:10:09;6.30;99.90
4079;DHT22;2054;47.858;11.156;2024-03-02T04:12:37;6.20;99.90
4079;DHT22;2054;47.858;11.156;2024-03-02T04:15:06;6.30;99.90
4079;DHT22;2054;47.858;11.156;2024-03-02T04:17:34;6.20;99.90
4079;DHT22;2054;47.858;11.156;2024-03-02T04:20:03;6.10;99.90
4079;DHT22;2054;47.858;11.156;2024-03-02T04:22:33;6.10;99.90
4079;DHT22;2054;47.858;11.156;2024-03-02T04:25:01;6.10;99.90
4079;DHT22;2054;47.858;11.156;2024-03-02T04:27:30;6.10;99.90
4079;DHT22;2054;47.858;11.156;2024-03-02T04:29:58;6.20;99.90
4079;DHT22;2054;47.858;11.156;2024-03-02T04:32:25;6.20;99.90
4079;DHT22;2054;47.858;11.156;2024-03-02T04:34:53;6.30;99.90
4079;DHT22;2054;47.858;11.156;2024-03-02T04:37:21;6.30;99.90
4079;DHT22;2054;47.858;11.156;2024-03-02T04:39:48;6.40;99.90
4079;DHT22;2054;47.858;11.156;2024-03-02T04:42:15;6.40;99.90
4079;DHT22;2054;47.858;11.156;2024-03-02T04:44:42;6.40;99.90
4079;DHT22;2054;47.858;11.156;2024-03-02T04:47:08;6.40;99.90
4079;DHT22;2054;47.858;11.156;2024-03-02T04:49:35;6.20;99.90
4079;DHT22;2054;47.858;11.156;2024-03-02T04:52:03;6.30;99.90
4079;DHT22;2054;47.858;11.156;2024-03-02T04:54:32;6.30;99.90
4079;DHT22;2054;47.858;11.156;2024-03-02T04:57:19;6.40;99.90
4079;DHT22;2054;47.858;11.156;2024-03-02T04:59:46;6.40;99.90
4079;DHT22;2054;47.858;11.156;2024-03-02T05:02:12;6.60;99.90
4079;DHT22;2054;47.858;11.156;2024-03-02T05:04:40;6.40;99.90
4079;DHT22;2054;47.858;11.156;2024-03-02T05:07:07;6.50;99.90
4079;DHT22;2054;47.858;11.156;2024-03-02T05:09:35;6.50;99.90
4079;DHT22;2054;47.858;11.156;2024-03-02T05:12:03;6.50;99.90
4079;DHT22;2054;47.858;11.156;2024-03-02T05:14:43;6.60;99.90
4079;DHT22;2054;47.858;11.156;2024-03-02T05:17:09;6.50;99.90
4079;DHT22;2054;47.858;11.156;2024-03-02T05:19:36;6.40;99.90
4079;DHT22;2054;47.858;11.156;2024-03-02T05:22:04;6.30;99.90
4079;DHT22;2054;47.858;11.156;2024-03-02T05:24:31;6.30;99.90
4079;DHT22;2054;47.858;11.156;2024-03-02T05:26:59;6.40;99.90
4079;DHT22;2054;47.858;11.156;2024-03-02T05:29:26;6.60;99.90
4079;DHT22;2054;47.858;11.156;2024-03-02T05:31:53;6.40;99.90
4079;DHT22;2054;47.858;11.156;2024-03-02T05:34:20;6.50;99.90
4079;DHT22;2054;47.858;11.156;2024-03-02T05:36:47;6.30;99.90
4079;DHT22;2054;47.858;11.156;2024-03-02T05:39:14;6.30;99.90
4079;DHT22;2054;47.858;11.156;2024-03-02T05:41:41;6.30;99.90
4079;DHT22;2054;47.858;11.156;2024-03-02T05:44:09;6.30;99.90
4079;DHT22;2054;47.858;11.156;2024-03-02T05:46:36;6.30;99.90
4079;DHT22;2054;47.858;11.156;2024-03-02T05:49:03;6.40;99.90
4079;DHT22;2054;47.858;11.156;2024-03-02T05:51:30;6.10;99.90
4079;DHT22;2054;47.858;11.156;2024-03-02T05:53:57;5.90;99.90
4079;DHT22;2054;47.858;11.156;2024-03-02T05:56:26;6.00;99.90
4079;DHT22;2054;47.858;11.156;2024-03-02T05:58:53;6.10;99.90
4079;DHT22;2054;47.858;11.156;2024-03-02T06:01:34;6.10;99.90
4079;DHT22;2054;47.858;11.156;2024-03-02T06:04:01;6.00;99.90
4079;DHT22;2054;47.858;11.156;2024-03-02T06:06:28;5.90;99.90
4079;DHT22;2054;47.858;11.156;2024-03-02T06:08:55;6.00;99.90
4079;DHT22;2054;47.858;11.156;2024-03-02T06:11:22;5.90;99.90
4079;DHT22;2054;47.858;11.156;2024-03-02T06:13:49;5.90;99.90
4079;DHT22;2054;47.858;11.156;2024-03-02T06:16:16;6.10;99.90
4079;DHT22;2054;47.858;11.156;2024-03-02T06:18:44;5.90;99.90
4079;DHT22;2054;47.858;11.156;2024-03-02T06:21:11;6.00;99.90
4079;DHT22;2054;47.858;11.156;2024-03-02T06:23:38;6.00;99.90
4079;DHT22;2054;47.858;11.156;2024-03-02T06:26:05;5.90;99.90
4079;DHT22;2054;47.858;11.156;2024-03-02T06:28:32;6.10;99.90
4079;DHT22;2054;47.858;11.156;2024-03-02T06:31:00;6.00;99.90
4079;DHT22;2054;47.858;11.156;2024-03-02T06:33:27;6.00;99.90
4079;DHT22;2054;47.858;11.156;2024-03-02T06:35:56;6.00;99.90
4079;DHT22;2054;47.858;11.156;2024-03-02T06:38:23;6.00;99.90
4079;DHT22;2054;47.858;11.156;2024-03-02T06:40:50;5.80;99.90
4079;DHT22;2054;47.858;11.156;2024-03-02T06:43:17;5.80;99.90
4079;DHT22;2054;47.858;11.156;2024-03-02T06:45:44;5.80;99.90
4079;DHT22;2054;47.858;11.156;2024-03-02T06:48:11;5.70;99.90
4079;DHT22;2054;47.858;11.156;2024-03-02T06:50:38;5.70;99.90
4079;DHT22;2054;47.858;11.156;2024-03-02T06:53:06;5.70;99.90
4079;DHT22;2054;47.858;11.156;2024-03-02T06:55:33;5.70;99.90
4079;DHT22;2054;47.858;11.156;2024-03-02T06:58:00;5.70;99.90
4079;DHT22;2054;47.858;11.156;2024-03-02T07:00:27;5.70;99.90
4079;DHT22;2054;47.858;11.156;2024-03-02T07:02:54;5.60;99.90
4079;DHT22;2054;47.858;11.156;2024-03-02T07:05:21;5.80;99.90
4079;DHT22;2054;47.858;11.156;2024-03-02T07:07:48;5.70;99.90
4079;DHT22;2054;47.858;11.156;2024-03-02T07:10:17;5.70;99.90
4079;DHT22;2054;47.858;11.156;2024-03-02T07:12:53;5.70;99.90
4079;DHT22;2054;47.858;11.156;2024-03-02T07:15:20;5.70;99.90
4079;DHT22;2054;47.858;11.156;2024-03-02T07:18:10;5.80;99.90
4079;DHT22;2054;47.858;11.156;2024-03-02T07:20:38;5.90;99.90
4079;DHT22;2054;47.858;11.156;2024-03-02T07:23:05;5.90;99.90
4079;DHT22;2054;47.858;11.156;2024-03-02T07:25:33;6.00;99.90
4079;DHT22;2054;47.858;11.156;2024-03-02T07:28:02;6.00;99.90
4079;DHT22;2054;47.858;11.156;2024-03-02T07:30:30;6.00;99.90
4079;DHT22;2054;47.858;11.156;2024-03-02T07:32:57;6.00;99.90
4079;DHT22;2054;47.858;11.156;2024-03-02T07:35:24;6.10;99.90
4079;DHT22;2054;47.858;11.156;2024-03-02T07:37:53;6.20;99.90
4079;DHT22;2054;47.858;11.156;2024-03-02T07:40:19;6.40;99.90
4079;DHT22;2054;47.858;11.156;2024-03-02T07:42:48;6.30;99.90
4079;DHT22;2054;47.858;11.156;2024-03-02T07:45:15;6.40;99.90
4079;DHT22;2054;47.858;11.156;2024-03-02T07:47:43;6.50;99.90
4079;DHT22;2054;47.858;11.156;2024-03-02T07:50:10;6.60;99.90
4079;DHT22;2054;47.858;11.156;2024-03-02T07:52:37;6.70;99.90
4079;DHT22;2054;47.858;11.156;2024-03-02T07:55:04;6.60;99.90
4079;DHT22;2054;47.858;11.156;2024-03-02T07:57:32;6.70;99.90
4079;DHT22;2054;47.858;11.156;2024-03-02T08:00:00;6.70;99.90
4079;DHT22;2054;47.858;11.156;2024-03-02T08:02:27;6.80;99.90
4079;DHT22;2054;47.858;11.156;2024-03-02T08:04:56;6.80;99.90
4079;DHT22;2054;47.858;11.156;2024-03-02T08:07:22;7.00;99.90
4079;DHT22;2054;47.858;11.156;2024-03-02T08:09:49;7.00;99.90
4079;DHT22;2054;47.858;11.156;2024-03-02T08:12:16;7.10;99.90
4079;DHT22;2054;47.858;11.156;2024-03-02T08:14:45;7.30;99.90
4079;DHT22;2054;47.858;11.156;2024-03-02T08:17:13;7.40;99.90
4079;DHT22;2054;47.858;11.156;2024-03-02T08:19:40;7.80;99.90
4079;DHT22;2054;47.858;11.156;2024-03-02T08:22:08;7.60;99.90
4079;DHT22;2054;47.858;11.156;2024-03-02T08:24:35;7.80;99.90
4079;DHT22;2054;47.858;11.156;2024-03-02T08:27:03;7.90;99.90
4079;DHT22;2054;47.858;11.156;2024-03-02T08:29:30;7.90;99.90
4079;DHT22;2054;47.858;11.156;2024-03-02T08:31:57;8.10;99.90
4079;DHT22;2054;47.858;11.156;2024-03-02T08:34:28;8.10;99.90
4079;DHT22;2054;47.858;11.156;2024-03-02T08:36:56;8.50;99.90
4079;DHT22;2054;47.858;11.156;2024-03-02T08:39:23;8.70;99.90
4079;DHT22;2054;47.858;11.156;2024-03-02T08:41:53;8.50;99.90
4079;DHT22;2054;47.858;11.156;2024-03-02T08:44:20;8.60;99.90
4079;DHT22;2054;47.858;11.156;2024-03-02T08:46:47;8.70;99.90
4079;DHT22;2054;47.858;11.156;2024-03-02T08:49:14;8.90;99.90
4079;DHT22;2054;47.858;11.156;2024-03-02T08:51:43;9.00;99.90
4079;DHT22;2054;47.858;11.156;2024-03-02T08:54:10;9.00;99.90
4079;DHT22;2054;47.858;11.156;2024-03-02T08:56:37;9.10;99.90
4079;DHT22;2054;47.858;11.156;2024-03-02T08:59:04;9.20;99.90
4079;DHT22;2054;47.858;11.156;2024-03-02T09:01:31;9.30;99.90
4079;DHT22;2054;47.858;11.156;2024-03-02T09:04:02;9.50;99.90
4079;DHT22;2054;47.858;11.156;2024-03-02T09:06:29;9.50;99.90
4079;DHT22;2054;47.858;11.156;2024-03-02T09:08:58;9.50;99.90
4079;DHT22;2054;47.858;11.156;2024-03-02T09:11:26;9.70;99.90
4079;DHT22;2054;47.858;11.156;2024-03-02T09:13:53;9.70;99.90
4079;DHT22;2054;47.858;11.156;2024-03-02T09:16:22;9.70;99.90
4079;DHT22;2054;47.858;11.156;2024-03-02T09:18:53;9.90;99.90
4079;DHT22;2054;47.858;11.156;2024-03-02T09:21:20;9.90;99.90
4079;DHT22;2054;47.858;11.156;2024-03-02T09:23:48;9.90;99.90
4079;DHT22;2054;47.858;11.156;2024-03-02T09:26:16;9.90;99.90
4079;DHT22;2054;47.858;11.156;2024-03-02T09:28:45;9.90;99.90
4079;DHT22;2054;47.858;11.156;2024-03-02T09:31:12;10.00;99.90
4079;DHT22;2054;47.858;11.156;2024-03-02T09:33:39;10.10;99.90
4079;DHT22;2054;47.858;11.156;2024-03-02T09:36:10;10.40;99.90
4079;DHT22;2054;47.858;11.156;2024-03-02T09:38:43;10.50;99.90
4079;DHT22;2054;47.858;11.156;2024-03-02T09:41:13;10.60;99.90
4079;DHT22;2054;47.858;11.156;2024-03-02T09:43:41;10.70;99.90
4079;DHT22;2054;47.858;11.156;2024-03-02T09:46:09;10.70;99.90
4079;DHT22;2054;47.858;11.156;2024-03-02T09:48:36;10.60;99.90
4079;DHT22;2054;47.858;11.156;2024-03-02T09:51:05;10.70;99.90
4079;DHT22;2054;47.858;11.156;2024-03-02T09:53:34;10.80;99.90
4079;DHT22;2054;47.858;11.156;2024-03-02T09:56:01;10.90;99.90
4079;DHT22;2054;47.858;11.156;2024-03-02T09:58:28;11.00;99.90
4079;DHT22;2054;47.858;11.156;2024-03-02T10:00:57;11.10;99.90
4079;DHT22;2054;47.858;11.156;2024-03-02T10:03:24;11.20;99.90
4079;DHT22;2054;47.858;11.156;2024-03-02T10:05:51;11.30;99.90
4079;DHT22;2054;47.858;11.156;2024-03-02T10:08:19;11.40;99.90
4079;DHT22;2054;47.858;11.156;2024-03-02T10:10:46;11.40;99.90
4079;DHT22;2054;47.858;11.156;2024-03-02T10:13:14;11.40;99.90
4079;DHT22;2054;47.858;11.156;2024-03-02T10:15:42;11.50;99.90
4079;DHT22;2054;47.858;11.156;2024-03-02T10:18:11;11.50;99.90
4079;DHT22;2054;47.858;11.156;2024-03-02T10:20:39;11.60;99.90
4079;DHT22;2054;47.858;11.156;2024-03-02T10:23:13;11.70;99.90
4079;DHT22;2054;47.858;11.156;2024-03-02T10:25:41;11.70;99.90
4079;DHT22;2054;47.858;11.156;2024-03-02T10:28:08;11.60;99.90
4079;DHT22;2054;47.858;11.156;2024-03-02T10:30:35;11.70;99.90
4079;DHT22;2054;47.858;11.156;2024-03-02T10:33:03;11.80;99.90
4079;DHT22;2054;47.858;11.156;2024-03-02T10:35:32;12.10;99.90
4079;DHT22;2054;47.858;11.156;2024-03-02T10:38:03;12.10;99.90
4079;DHT22;2054;47.858;11.156;2024-03-02T10:40:31;12.30;99.90
4079;DHT22;2054;47.858;11.156;2024-03-02T10:42:59;12.30;99.90
4079;DHT22;2054;47.858;11.156;2024-03-02T10:45:28;12.40;99.90
4079;DHT22;2054;47.858;11.156;2024-03-02T10:47:56;12.60;99.90
4079;DHT22;2054;47.858;11.156;2024-03-02T10:50:24;12.70;99.90
4079;DHT22;2054;47.858;11.156;2024-03-02T10:52:51;12.70;99.90
4079;DHT22;2054;47.858;11.156;2024-03-02T10:55:19;12.70;99.90
4079;DHT22;2054;47.858;11.156;2024-03-02T10:57:50;12.70;99.90
4079;DHT22;2054;47.858;11.156;2024-03-02T11:00:19;12.70;99.90
4079;DHT22;2054;47.858;11.156;2024-03-02T11:02:51;12.70;99.90
4079;DHT22;2054;47.858;11.156;2024-03-02T11:05:26;12.80;99.90
4079;DHT22;2054;47.858;11.156;2024-03-02T11:07:57;12.90;99.90
4079;DHT22;2054;47.858;11.156;2024-03-02T11:10:28;13.00;99.90
4079;DHT22;2054;47.858;11.156;2024-03-02T11:13:02;13.00;99.90
4079;DHT22;2054;47.858;11.156;2024-03-02T11:15:30;13.00;99.90
4079;DHT22;2054;47.858;11.156;2024-03-02T11:17:58;13.00;99.90
4079;DHT22;2054;47.858;11.156;2024-03-02T11:20:26;13.10;99.90
4079;DHT22;2054;47.858;11.156;2024-03-02T11:22:55;13.20;99.90
4079;DHT22;2054;47.858;11.156;2024-03-02T11:25:23;13.30;99.90
4079;DHT22;2054;47.858;11.156;2024-03-02T11:28:02;13.20;99.90
4079;DHT22;2054;47.858;11.156;2024-03-02T11:30:49;13.20;99.90
4079;DHT22;2054;47.858;11.156;2024-03-02T11:33:26;13.20;99.90
4079;DHT22;2054;47.858;11.156;2024-03-02T11:35:56;13.20;99.90
4079;DHT22;2054;47.858;11.156;2024-03-02T11:38:33;13.30;99.90
4079;DHT22;2054;47.858;11.156;2024-03-02T11:41:01;13.30;99.90
4079;DHT22;2054;47.858;11.156;2024-03-02T11:43:28;13.30;99.90
4079;DHT22;2054;47.858;11.156;2024-03-02T11:46:00;13.30;99.90
4079;DHT22;2054;47.858;11.156;2024-03-02T11:48:30;13.30;99.90
4079;DHT22;2054;47.858;11.156;2024-03-02T11:50:58;13.20;99.90
4079;DHT22;2054;47.858;11.156;2024-03-02T11:53:30;13.20;99.90
4079;DHT22;2054;47.858;11.156;2024-03-02T11:55:58;13.20;99.90
4079;DHT22;2054;47.858;11.156;2024-03-02T11:58:27;13.20;99.90
4079;DHT22;2054;47.858;11.156;2024-03-02T12:00:55;13.10;99.90
4079;DHT22;2054;47.858;11.156;2024-03-02T12:03:23;13.10;99.90
4079;DHT22;2054;47.858;11.156;2024-03-02T12:05:51;13.10;99.90
4079;DHT22;2054;47.858;11.156;2024-03-02T12:08:19;13.00;99.90
4079;DHT22;2054;47.858;11.156;2024-03-02T12:10:58;13.00;99.90
4079;DHT22;2054;47.858;11.156;2024-03-02T12:13:26;13.00;99.90
4079;DHT22;2054;47.858;11.156;2024-03-02T12:15:53;13.00;99.90
4079;DHT22;2054;47.858;11.156;2024-03-02T12:18:21;13.00;99.90
4079;DHT22;2054;47.858;11.156;2024-03-02T12:20:49;13.00;99.90
4079;DHT22;2054;47.858;11.156;2024-03-02T12:23:18;13.00;99.90
4079;DHT22;2054;47.858;11.156;2024-03-02T12:25:46;12.90;99.90
4079;DHT22;2054;47.858;11.156;2024-03-02T12:28:14;13.00;99.90
4079;DHT22;2054;47.858;11.156;2024-03-02T12:30:42;13.10;99.90
4079;DHT22;2054;47.858;11.156;2024-03-02T12:33:11;13.10;99.90
4079;DHT22;2054;47.858;11.156;2024-03-02T12:35:38;13.10;99.90
4079;DHT22;2054;47.858;11.156;2024-03-02T12:38:11;13.10;99.90
4079;DHT22;2054;47.858;11.156;2024-03-02T12:40:39;13.10;99.90
4079;DHT22;2054;47.858;11.156;2024-03-02T12:43:06;13.10;99.90
4079;DHT22;2054;47.858;11.156;2024-03-02T12:45:35;13.10;99.90
4079;DHT22;2054;47.858;11.156;2024-03-02T12:48:03;13.20;99.90
4079;DHT22;2054;47.858;11.156;2024-03-02T12:50:31;13.20;99.90
4079;DHT22;2054;47.858;11.156;2024-03-02T12:52:58;13.30;99.90
4079;DHT22;2054;47.858;11.156;2024-03-02T12:55:25;13.50;99.90
4079;DHT22;2054;47.858;11.156;2024-03-02T12:57:54;13.60;99.90
4079;DHT22;2054;47.858;11.156;2024-03-02T13:00:22;13.70;99.90
4079;DHT22;2054;47.858;11.156;2024-03-02T13:02:51;13.70;99.90
4079;DHT22;2054;47.858;11.156;2024-03-02T13:05:18;13.80;99.90
4079;DHT22;2054;47.858;11.156;2024-03-02T13:07:47;13.80;99.90
4079;DHT22;2054;47.858;11.156;2024-03-02T13:10:14;13.80;99.90
4079;DHT22;2054;47.858;11.156;2024-03-02T13:12:43;13.90;99.90
4079;DHT22;2054;47.858;11.156;2024-03-02T13:15:10;13.90;99.90
4079;DHT22;2054;47.858;11.156;2024-03-02T13:17:38;13.90;99.90
4079;DHT22;2054;47.858;11.156;2024-03-02T13:20:08;13.80;99.90
4079;DHT22;2054;47.858;11.156;2024-03-02T13:22:36;13.80;99.90
4079;DHT22;2054;47.858;11.156;2024-03-02T13:25:03;13.80;99.90
4079;DHT22;2054;47.858;11.156;2024-03-02T13:27:30;13.80;99.90
4079;DHT22;2054;47.858;11.156;2024-03-02T13:29:58;13.70;99.90
4079;DHT22;2054;47.858;11.156;2024-03-02T13:32:25;13.80;99.90
4079;DHT22;2054;47.858;11.156;2024-03-02T13:34:52;13.90;99.90
4079;DHT22;2054;47.858;11.156;2024-03-02T13:37:21;13.90;99.90
4079;DHT22;2054;47.858;11.156;2024-03-02T13:39:48;14.00;99.90
4079;DHT22;2054;47.858;11.156;2024-03-02T13:42:15;14.10;99.90
4079;DHT22;2054;47.858;11.156;2024-03-02T13:44:43;14.10;99.90
4079;DHT22;2054;47.858;11.156;2024-03-02T13:47:12;14.10;99.90
4079;DHT22;2054;47.858;11.156;2024-03-02T13:49:38;14.20;99.90
4079;DHT22;2054;47.858;11.156;2024-03-02T13:52:09;14.20;99.90
4079;DHT22;2054;47.858;11.156;2024-03-02T13:54:40;14.30;99.90
4079;DHT22;2054;47.858;11.156;2024-03-02T13:57:09;14.40;99.90
4079;DHT22;2054;47.858;11.156;2024-03-02T13:59:37;14.40;99.90
4079;DHT22;2054;47.858;11.156;2024-03-02T14:02:05;14.40;99.90
4079;DHT22;2054;47.858;11.156;2024-03-02T14:04:33;14.50;99.90
4079;DHT22;2054;47.858;11.156;2024-03-02T14:07:01;14.20;99.90
4079;DHT22;2054;47.858;11.156;2024-03-02T14:09:28;14.50;99.90
4079;DHT22;2054;47.858;11.156;2024-03-02T14:11:57;14.40;99.90
4079;DHT22;2054;47.858;11.156;2024-03-02T14:14:26;14.40;99.90
4079;DHT22;2054;47.858;11.156;2024-03-02T14:16:54;14.40;99.90
4079;DHT22;2054;47.858;11.156;2024-03-02T14:19:21;14.40;99.90
4079;DHT22;2054;47.858;11.156;2024-03-02T14:21:48;14.40;99.90
4079;DHT22;2054;47.858;11.156;2024-03-02T14:24:15;14.30;99.90
4079;DHT22;2054;47.858;11.156;2024-03-02T14:26:42;14.30;99.90
4079;DHT22;2054;47.858;11.156;2024-03-02T14:29:10;14.40;99.90
4079;DHT22;2054;47.858;11.156;2024-03-02T14:31:38;14.30;99.90
4079;DHT22;2054;47.858;11.156;2024-03-02T14:34:05;14.30;99.90
4079;DHT22;2054;47.858;11.156;2024-03-02T14:36:32;14.40;99.90
4079;DHT22;2054;47.858;11.156;2024-03-02T14:38:59;14.50;99.90
4079;DHT22;2054;47.858;11.156;2024-03-02T14:41:26;14.50;99.90
4079;DHT22;2054;47.858;11.156;2024-03-02T14:43:55;14.60;99.90
4079;DHT22;2054;47.858;11.156;2024-03-02T14:46:23;14.60;99.90
4079;DHT22;2054;47.858;11.156;2024-03-02T14:48:50;14.50;99.90
4079;DHT22;2054;47.858;11.156;2024-03-02T14:51:17;14.50;99.90
4079;DHT22;2054;47.858;11.156;2024-03-02T14:53:44;14.40;99.90
4079;DHT22;2054;47.858;11.156;2024-03-02T14:56:11;14.30;99.90
4079;DHT22;2054;47.858;11.156;2024-03-02T14:58:39;14.30;99.90
4079;DHT22;2054;47.858;11.156;2024-03-02T15:01:06;14.30;99.90
4079;DHT22;2054;47.858;11.156;2024-03-02T15:03:37;14.30;99.90
4079;DHT22;2054;47.858;11.156;2024-03-02T15:06:05;14.30;99.90
4079;DHT22;2054;47.858;11.156;2024-03-02T15:08:33;14.20;99.90
4079;DHT22;2054;47.858;11.156;2024-03-02T15:11:00;14.20;99.90
4079;DHT22;2054;47.858;11.156;2024-03-02T15:13:29;14.10;99.90
4079;DHT22;2054;47.858;11.156;2024-03-02T15:15:56;14.10;99.90
4079;DHT22;2054;47.858;11.156;2024-03-02T15:18:23;14.20;99.90
4079;DHT22;2054;47.858;11.156;2024-03-02T15:20:52;14.20;99.90
4079;DHT22;2054;47.858;11.156;2024-03-02T15:23:19;14.70;99.90
4079;DHT22;2054;47.858;11.156;2024-03-02T15:25:45;15.30;99.90
4079;DHT22;2054;47.858;11.156;2024-03-02T15:28:12;16.00;99.90
4079;DHT22;2054;47.858;11.156;2024-03-02T15:30:39;16.80;99.90
4079;DHT22;2054;47.858;11.156;2024-03-02T15:33:07;17.20;99.90
4079;DHT22;2054;47.858;11.156;2024-03-02T15:35:34;17.40;99.90
4079;DHT22;2054;47.858;11.156;2024-03-02T15:38:02;17.20;99.90
4079;DHT22;2054;47.858;11.156;2024-03-02T15:40:29;16.90;99.90
4079;DHT22;2054;47.858;11.156;2024-03-02T15:42:56;16.80;99.90
4079;DHT22;2054;47.858;11.156;2024-03-02T15:45:23;16.50;99.90
4079;DHT22;2054;47.858;11.156;2024-03-02T15:47:58;15.80;99.90
4079;DHT22;2054;47.858;11.156;2024-03-02T15:50:25;15.40;99.90
4079;DHT22;2054;47.858;11.156;2024-03-02T15:52:53;15.20;99.90
4079;DHT22;2054;47.858;11.156;2024-03-02T15:55:23;15.10;99.90
4079;DHT22;2054;47.858;11.156;2024-03-02T15:57:49;15.00;99.90
4079;DHT22;2054;47.858;11.156;2024-03-02T16:00:17;14.70;99.90
4079;DHT22;2054;47.858;11.156;2024-03-02T16:02:43;14.60;99.90
4079;DHT22;2054;47.858;11.156;2024-03-02T16:05:10;14.50;99.90
4079;DHT22;2054;47.858;11.156;2024-03-02T16:07:38;14.40;99.90
4079;DHT22;2054;47.858;11.156;2024-03-02T16:10:06;14.30;99.90
4079;DHT22;2054;47.858;11.156;2024-03-02T16:12:36;14.10;99.90
4079;DHT22;2054;47.858;11.156;2024-03-02T16:15:04;13.90;99.90
4079;DHT22;2054;47.858;11.156;2024-03-02T16:17:34;13.70;99.90
4079;DHT22;2054;47.858;11.156;2024-03-02T16:20:01;13.40;99.90
4079;DHT22;2054;47.858;11.156;2024-03-02T16:22:31;13.30;99.90
4079;DHT22;2054;47.858;11.156;2024-03-02T16:24:59;13.10;99.90
4079;DHT22;2054;47.858;11.156;2024-03-02T16:27:26;12.90;99.90
4079;DHT22;2054;47.858;11.156;2024-03-02T16:29:55;12.80;99.90
4079;DHT22;2054;47.858;11.156;2024-03-02T16:32:24;12.70;99.90
4079;DHT22;2054;47.858;11.156;2024-03-02T16:34:51;12.60;99.90
4079;DHT22;2054;47.858;11.156;2024-03-02T16:37:18;12.50;99.90
4079;DHT22;2054;47.858;11.156;2024-03-02T16:39:46;12.40;99.90
4079;DHT22;2054;47.858;11.156;2024-03-02T16:42:14;12.30;99.90
4079;DHT22;2054;47.858;11.156;2024-03-02T16:44:41;12.20;99.90
4079;DHT22;2054;47.858;11.156;2024-03-02T16:47:10;12.10;99.90
4079;DHT22;2054;47.858;11.156;2024-03-02T16:49:37;12.00;99.90
4079;DHT22;2054;47.858;11.156;2024-03-02T16:52:04;11.90;99.90
4079;DHT22;2054;47.858;11.156;2024-03-02T16:54:31;11.90;99.90
4079;DHT22;2054;47.858;11.156;2024-03-02T16:56:58;11.80;99.90
4079;DHT22;2054;47.858;11.156;2024-03-02T16:59:25;11.80;99.90
4079;DHT22;2054;47.858;11.156;2024-03-02T17:01:52;11.70;99.90
4079;DHT22;2054;47.858;11.156;2024-03-02T17:04:20;11.70;99.90
4079;DHT22;2054;47.858;11.156;2024-03-02T17:06:48;11.60;99.90
4079;DHT22;2054;47.858;11.156;2024-03-02T17:09:15;11.50;99.90
4079;DHT22;2054;47.858;11.156;2024-03-02T17:11:43;11.40;99.90
4079;DHT22;2054;47.858;11.156;2024-03-02T17:14:09;11.30;99.90
4079;DHT22;2054;47.858;11.156;2024-03-02T17:16:36;11.30;99.90
4079;DHT22;2054;47.858;11.156;2024-03-02T17:19:04;11.20;99.90
4079;DHT22;2054;47.858;11.156;2024-03-02T17:21:32;11.20;99.90
4079;DHT22;2054;47.858;11.156;2024-03-02T17:23:59;11.10;99.90
4079;DHT22;2054;47.858;11.156;2024-03-02T17:26:28;11.10;99.90
4079;DHT22;2054;47.858;11.156;2024-03-02T17:28:55;11.00;99.90
4079;DHT22;2054;47.858;11.156;2024-03-02T17:31:22;10.90;99.90
4079;DHT22;2054;47.858;11.156;2024-03-02T17:33:49;10.80;99.90
4079;DHT22;2054;47.858;11.156;2024-03-02T17:36:16;10.80;99.90
4079;DHT22;2054;47.858;11.156;2024-03-02T17:38:44;10.70;99.90
4079;DHT22;2054;47.858;11.156;2024-03-02T17:41:11;10.70;99.90
4079;DHT22;2054;47.858;11.156;2024-03-02T17:43:38;10.70;99.90
4079;DHT22;2054;47.858;11.156;2024-03-02T17:46:06;10.60;99.90
4079;DHT22;2054;47.858;11.156;2024-03-02T17:48:33;10.60;99.90
4079;DHT22;2054;47.858;11.156;2024-03-02T17:51:00;10.60;99.90
4079;DHT22;2054;47.858;11.156;2024-03-02T17:53:27;10.50;99.90
4079;DHT22;2054;47.858;11.156;2024-03-02T17:55:56;10.40;99.90
4079;DHT22;2054;47.858;11.156;2024-03-02T17:58:23;10.30;99.90
4079;DHT22;2054;47.858;11.156;2024-03-02T18:00:50;10.30;99.90
4079;DHT22;2054;47.858;11.156;2024-03-02T18:03:17;10.20;99.90
4079;DHT22;2054;47.858;11.156;2024-03-02T18:05:44;10.20;99.90
4079;DHT22;2054;47.858;11.156;2024-03-02T18:08:11;10.20;99.90
4079;DHT22;2054;47.858;11.156;2024-03-02T18:10:38;10.10;99.90
4079;DHT22;2054;47.858;11.156;2024-03-02T18:13:07;10.10;99.90
4079;DHT22;2054;47.858;11.156;2024-03-02T18:15:33;10.00;99.90
4079;DHT22;2054;47.858;11.156;2024-03-02T18:18:00;9.90;99.90
4079;DHT22;2054;47.858;11.156;2024-03-02T18:20:28;9.80;99.90
4079;DHT22;2054;47.858;11.156;2024-03-02T18:22:55;9.70;99.90
4079;DHT22;2054;47.858;11.156;2024-03-02T18:25:24;9.70;99.90
4079;DHT22;2054;47.858;11.156;2024-03-02T18:27:51;9.70;99.90
4079;DHT22;2054;47.858;11.156;2024-03-02T18:30:19;9.60;99.90
4079;DHT22;2054;47.858;11.156;2024-03-02T18:32:46;9.60;99.90
4079;DHT22;2054;47.858;11.156;2024-03-02T18:35:13;9.50;99.90
4079;DHT22;2054;47.858;11.156;2024-03-02T18:37:40;9.50;99.90
4079;DHT22;2054;47.858;11.156;2024-03-02T18:40:11;9.50;99.90
4079;DHT22;2054;47.858;11.156;2024-03-02T18:42:40;9.50;99.90
4079;DHT22;2054;47.858;11.156;2024-03-02T18:45:07;9.40;99.90
4079;DHT22;2054;47.858;11.156;2024-03-02T18:47:36;9.40;99.90
4079;DHT22;2054;47.858;11.156;2024-03-02T18:50:05;9.60;99.90
4079;DHT22;2054;47.858;11.156;2024-03-02T18:52:34;9.20;99.90
4079;DHT22;2054;47.858;11.156;2024-03-02T18:55:02;9.20;99.90
4079;DHT22;2054;47.858;11.156;2024-03-02T18:57:32;9.10;99.90
4079;DHT22;2054;47.858;11.156;2024-03-02T18:59:59;9.00;99.90
4079;DHT22;2054;47.858;11.156;2024-03-02T19:02:27;9.00;99.90
4079;DHT22;2054;47.858;11.156;2024-03-02T19:04:55;8.90;99.90
4079;DHT22;2054;47.858;11.156;2024-03-02T19:07:22;8.80;99.90
4079;DHT22;2054;47.858;11.156;2024-03-02T19:09:49;8.70;99.90
4079;DHT22;2054;47.858;11.156;2024-03-02T19:12:16;8.70;99.90
4079;DHT22;2054;47.858;11.156;2024-03-02T19:14:43;8.70;99.90
4079;DHT22;2054;47.858;11.156;2024-03-02T19:17:11;8.80;99.90
4079;DHT22;2054;47.858;11.156;2024-03-02T19:19:38;8.50;99.90
4079;DHT22;2054;47.858;11.156;2024-03-02T19:22:07;8.50;99.90
4079;DHT22;2054;47.858;11.156;2024-03-02T19:24:35;8.50;99.90
4079;DHT22;2054;47.858;11.156;2024-03-02T19:27:03;8.40;99.90
4079;DHT22;2054;47.858;11.156;2024-03-02T19:29:30;8.40;99.90
4079;DHT22;2054;47.858;11.156;2024-03-02T19:31:58;8.30;99.90
4079;DHT22;2054;47.858;11.156;2024-03-02T19:34:25;8.30;99.90
4079;DHT22;2054;47.858;11.156;2024-03-02T19:36:52;8.30;99.90
4079;DHT22;2054;47.858;11.156;2024-03-02T19:39:22;8.20;99.90
4079;DHT22;2054;47.858;11.156;2024-03-02T19:41:51;8.10;99.90